createdAt,value
2022-08-25T00:00:58.113Z,41.11
2022-08-25T00:03:30.489Z,41.51
2022-08-25T00:06:06.734Z,42.13
2022-08-25T00:08:39.108Z,42.72
2022-08-25T00:11:13.943Z,40.69
2022-08-25T00:13:48.412Z,42.96
2022-08-25T00:16:20.568Z,43.09
2022-08-25T00:18:55.528Z,40.74
2022-08-25T00:21:29.333Z,43.63
2022-08-25T00:24:02.840Z,43.80
2022-08-25T00:26:39.005Z,44.21
2022-08-25T00:29:12.068Z,44.12
2022-08-25T00:31:45.378Z,44.35
2022-08-25T00:34:20.381Z,44.38
2022-08-25T00:36:52.827Z,44.06
2022-08-25T00:39:26.107Z,44.43
2022-08-25T00:41:59.714Z,44.92
2022-08-25T00:44:33.991Z,44.22
2022-08-25T00:47:06.915Z,44.45
2022-08-25T00:49:41.898Z,43.93
2022-08-25T00:52:19.881Z,43.94
2022-08-25T00:54:55.062Z,43.90
2022-08-25T00:57:34.488Z,43.97
2022-08-25T01:00:12.814Z,43.84
2022-08-25T01:02:45.105Z,44.36
2022-08-25T01:05:18.324Z,44.58
2022-08-25T01:07:51.639Z,44.39
2022-08-25T01:10:25.895Z,44.74
2022-08-25T01:13:01.009Z,44.77
2022-08-25T01:15:33.364Z,44.69
2022-08-25T01:18:05.667Z,44.71
2022-08-25T01:20:38.039Z,44.86
2022-08-25T01:23:10.875Z,45.03
2022-08-25T01:26:04.071Z,44.87
2022-08-25T01:28:36.564Z,44.85
2022-08-25T01:31:23.876Z,45.22
2022-08-25T01:33:42.806Z,45.43
2022-08-25T01:36:16.487Z,45.46
2022-08-25T01:38:48.987Z,45.52
2022-08-25T01:41:32.840Z,45.67
2022-08-25T01:44:08.793Z,44.93
2022-08-25T01:46:42.580Z,45.05
2022-08-25T01:49:14.600Z,44.73
2022-08-25T01:51:49.169Z,44.64
2022-08-25T01:54:20.549Z,44.58
2022-08-25T01:56:52.288Z,42.94
2022-08-25T01:59:25.778Z,44.16
2022-08-25T02:01:59.952Z,44.52
2022-08-25T02:04:33.059Z,44.41
2022-08-25T02:07:08.894Z,44.46
2022-08-25T02:09:41.220Z,44.46
2022-08-25T02:12:13.750Z,44.81
2022-08-25T02:14:47.512Z,44.68
2022-08-25T02:17:19.651Z,44.60
2022-08-25T02:19:51.926Z,45.04
2022-08-25T02:22:24.525Z,45.20
2022-08-25T02:24:56.876Z,45.53
2022-08-25T02:27:28.800Z,46.15
2022-08-25T02:30:00.930Z,46.18
2022-08-25T02:32:33.991Z,46.19
2022-08-25T02:35:06.812Z,45.63
2022-08-25T02:37:39.070Z,45.75
2022-08-25T02:40:11.962Z,45.61
2022-08-25T02:42:44.885Z,45.55
2022-08-25T02:45:17.129Z,45.24
2022-08-25T02:47:49.938Z,44.84
2022-08-25T02:50:22.206Z,44.93
2022-08-25T02:52:55.136Z,45.04
2022-08-25T02:55:27.203Z,45.32
2022-08-25T02:57:59.216Z,45.29
2022-08-25T03:00:31.482Z,44.83
2022-08-25T03:03:04.846Z,44.14
2022-08-25T03:05:36.861Z,44.11
2022-08-25T03:08:11.144Z,43.91
2022-08-25T03:10:43.324Z,43.80
2022-08-25T03:13:16.796Z,43.36
2022-08-25T03:15:49.457Z,43.73
2022-08-25T03:18:23.281Z,43.87
2022-08-25T03:20:57.021Z,43.44
2022-08-25T03:23:29.767Z,43.47
2022-08-25T03:26:19.436Z,42.94
2022-08-25T03:28:52.129Z,42.97
2022-08-25T03:31:28.008Z,42.62
2022-08-25T03:34:01.235Z,42.53
2022-08-25T03:36:33.389Z,42.14
2022-08-25T03:39:06.056Z,42.46
2022-08-25T03:41:38.270Z,42.35
2022-08-25T03:44:10.893Z,42.19
2022-08-25T03:46:45.628Z,42.20
2022-08-25T03:49:21.526Z,41.99
2022-08-25T03:51:55.491Z,41.38
2022-08-25T03:54:28.190Z,41.70
2022-08-25T03:57:00.401Z,41.74
2022-08-25T03:59:32.426Z,41.59
2022-08-25T04:02:04.581Z,41.39
2022-08-25T04:04:36.839Z,41.30
2022-08-25T04:07:09.174Z,41.48
2022-08-25T04:09:41.224Z,41.01
2022-08-25T04:12:13.360Z,40.98
2022-08-25T04:14:45.692Z,40.67
2022-08-25T04:17:17.921Z,40.54
2022-08-25T04:19:51.064Z,40.71
2022-08-25T04:22:24.097Z,40.46
2022-08-25T04:24:56.537Z,40.08
2022-08-25T04:27:28.868Z,39.81
2022-08-25T04:30:01.214Z,39.57
2022-08-25T04:32:33.762Z,39.44
2022-08-25T04:35:06.653Z,39.52
2022-08-25T04:37:38.665Z,39.32
2022-08-25T04:40:11.732Z,39.17
2022-08-25T04:42:45.386Z,39.02
2022-08-25T04:45:19.532Z,39.04
2022-08-25T04:47:54.974Z,38.86
2022-08-25T04:50:25.685Z,38.72
2022-08-25T04:52:57.998Z,38.45
2022-08-25T04:55:30.252Z,38.25
2022-08-25T04:58:03.195Z,38.06
2022-08-25T05:00:37.511Z,37.85
2022-08-25T05:03:10.091Z,37.90
2022-08-25T05:05:42.260Z,37.82
2022-08-25T05:08:14.523Z,37.86
2022-08-25T05:10:47.265Z,37.95
2022-08-25T05:13:19.544Z,37.70
2022-08-25T05:16:00.121Z,37.47
2022-08-25T05:18:33.800Z,37.68
2022-08-25T05:21:08.770Z,37.53
2022-08-25T05:23:42.275Z,37.37
2022-08-25T05:26:22.578Z,36.92
2022-08-25T05:28:56.754Z,36.97
2022-08-25T05:31:30.245Z,36.57
2022-08-25T05:34:10.551Z,36.34
2022-08-25T05:36:43.674Z,36.49
2022-08-25T05:39:16.037Z,36.23
2022-08-25T05:41:48.109Z,35.54
2022-08-25T05:44:21.300Z,35.00
2022-08-25T05:46:54.056Z,34.50
2022-08-25T05:49:27.852Z,34.53
2022-08-25T05:52:00.090Z,33.84
2022-08-25T05:54:32.175Z,34.42
2022-08-25T05:57:04.376Z,34.01
2022-08-25T05:59:36.540Z,33.55
2022-08-25T06:02:26.815Z,32.52
2022-08-25T06:04:59.099Z,31.17
2022-08-25T06:07:33.528Z,29.72
2022-08-25T06:10:08.271Z,28.92
2022-08-25T06:12:44.721Z,28.41
2022-08-25T06:15:19.853Z,28.49
2022-08-25T06:17:56.729Z,28.07
2022-08-25T06:20:29.677Z,27.32
2022-08-25T06:23:01.838Z,26.50
2022-08-25T06:25:34.105Z,25.43
2022-08-25T06:28:06.560Z,24.72
2022-08-25T06:30:40.971Z,24.81
2022-08-25T06:33:13.011Z,25.15
2022-08-25T06:35:46.124Z,25.09
2022-08-25T06:38:18.320Z,24.64
2022-08-25T06:40:52.211Z,24.36
2022-08-25T06:43:24.746Z,23.67
2022-08-25T06:45:56.931Z,23.35
2022-08-25T06:48:29.603Z,23.17
2022-08-25T06:51:03.677Z,22.28
2022-08-25T06:53:36.260Z,21.69
2022-08-25T06:56:08.963Z,21.24
2022-08-25T06:58:41.545Z,20.72
2022-08-25T07:01:21.928Z,20.07
2022-08-25T07:03:59.874Z,19.43
2022-08-25T07:06:36.120Z,18.98
2022-08-25T07:09:10.559Z,18.27
2022-08-25T07:11:42.623Z,17.68
2022-08-25T07:14:17.105Z,18.37
2022-08-25T07:16:50.255Z,18.02
2022-08-25T07:19:22.849Z,18.89
2022-08-25T07:21:55.677Z,19.64
2022-08-25T07:24:27.684Z,20.79
2022-08-25T07:26:59.791Z,22.02
2022-08-25T07:29:34.008Z,22.74
2022-08-25T07:32:07.275Z,23.52
2022-08-25T07:34:58.457Z,23.66
2022-08-25T07:37:47.935Z,24.10
2022-08-25T07:40:05.901Z,24.41
2022-08-25T07:42:38.287Z,24.55
2022-08-25T07:45:11.719Z,24.65
2022-08-25T07:47:44.284Z,24.97
2022-08-25T07:50:17.652Z,25.02
2022-08-25T07:52:59.086Z,25.19
2022-08-25T07:55:26.107Z,25.61
2022-08-25T07:58:01.309Z,25.46
2022-08-25T08:00:36.657Z,25.11
2022-08-25T08:03:15.955Z,25.28
2022-08-25T08:05:44.028Z,25.22
2022-08-25T08:08:17.115Z,24.84
2022-08-25T08:11:04.909Z,24.40
2022-08-25T08:13:26.760Z,24.25
2022-08-25T08:16:00.212Z,24.27
2022-08-25T08:18:33.243Z,24.39
2022-08-25T08:21:05.758Z,24.42
2022-08-25T08:23:39.133Z,24.45
2022-08-25T08:26:11.170Z,23.92
2022-08-25T08:28:43.650Z,23.92
2022-08-25T08:31:17.398Z,23.76
2022-08-25T08:33:51.942Z,23.62
2022-08-25T08:36:25.998Z,23.21
2022-08-25T08:38:58.384Z,22.85
2022-08-25T08:42:09.616Z,23.24
2022-08-25T08:44:38.730Z,23.81
2022-08-25T08:47:23.354Z,24.01
2022-08-25T08:50:01.507Z,24.35
2022-08-25T08:52:59.354Z,24.34
2022-08-25T08:55:42.502Z,23.77
2022-08-25T08:58:30.376Z,23.80
2022-08-25T09:01:03.273Z,24.00
2022-08-25T09:03:44.355Z,24.22
2022-08-25T09:06:23.672Z,24.42
2022-08-25T09:08:58.707Z,24.05
2022-08-25T09:11:49.140Z,23.64
2022-08-25T09:14:30.393Z,23.29
2022-08-25T09:17:31.391Z,23.23
2022-08-25T09:20:39.862Z,22.93
2022-08-25T09:23:24.149Z,22.36
2022-08-25T09:26:12.266Z,22.22
2022-08-25T09:28:55.035Z,22.42
2022-08-25T09:31:30.594Z,22.72
2022-08-25T09:34:05.288Z,22.23
2022-08-25T09:36:38.036Z,21.93
2022-08-25T09:39:10.309Z,22.00
2022-08-25T09:41:56.387Z,21.87
2022-08-25T09:44:32.057Z,21.86
2022-08-25T09:47:11.003Z,22.07
2022-08-25T09:49:47.148Z,22.05
2022-08-25T09:52:34.752Z,21.97
2022-08-25T09:55:16.242Z,21.74
2022-08-25T09:57:52.955Z,21.51
2022-08-25T10:00:29.669Z,21.16
2022-08-25T10:03:24.861Z,21.15
2022-08-25T10:06:00.693Z,21.34
2022-08-25T10:08:46.098Z,21.18
2022-08-25T10:11:40.515Z,21.00
2022-08-25T10:14:21.622Z,20.40
2022-08-25T10:16:54.643Z,20.05
2022-08-25T10:19:30.642Z,19.52
2022-08-25T10:22:11.565Z,19.53
2022-08-25T10:24:44.383Z,19.53
2022-08-25T10:27:31.707Z,23.02
2022-08-25T10:30:11.062Z,20.72
2022-08-25T10:32:52.451Z,26.07
2022-08-25T10:35:31.889Z,22.46
2022-08-25T10:38:27.200Z,22.39
2022-08-25T10:41:12.635Z,22.36
2022-08-25T10:44:10.929Z,22.20
2022-08-25T10:46:49.005Z,21.88
2022-08-25T10:49:23.699Z,21.91
2022-08-25T10:52:04.659Z,21.44
2022-08-25T10:54:39.511Z,21.49
2022-08-25T10:57:32.158Z,21.14
2022-08-25T11:00:14.691Z,21.22
2022-08-25T11:03:06.329Z,20.35
2022-08-25T11:06:00.157Z,20.47
2022-08-25T11:08:43.891Z,20.15
2022-08-25T11:11:40.249Z,20.63
2022-08-25T11:14:15.442Z,20.70
2022-08-25T11:17:06.140Z,20.47
2022-08-25T11:19:44.005Z,20.27
2022-08-25T11:22:22.107Z,20.01
2022-08-25T11:25:15.562Z,19.92
2022-08-25T11:28:16.337Z,19.99
2022-08-25T11:30:49.759Z,19.98
2022-08-25T11:33:23.622Z,19.89
2022-08-25T11:35:59.026Z,20.20
2022-08-25T11:39:01.401Z,20.41
2022-08-25T11:41:56.147Z,20.66
2022-08-25T11:44:55.093Z,20.65
2022-08-25T11:47:41.726Z,20.89
2022-08-25T11:50:35.122Z,21.14
2022-08-25T11:53:28.146Z,20.94
2022-08-25T11:56:00.858Z,20.66
2022-08-25T11:58:49.699Z,20.58
2022-08-25T12:01:44.361Z,20.40
2022-08-25T12:04:34.985Z,20.25
2022-08-25T12:07:13.567Z,20.28
2022-08-25T12:09:55.307Z,20.11
2022-08-25T12:12:34.269Z,19.96
2022-08-25T12:15:27.496Z,20.11
2022-08-25T12:18:23.828Z,20.34
2022-08-25T12:21:01.064Z,17.64
2022-08-25T12:23:39.887Z,15.61
2022-08-25T12:26:27.937Z,13.74
2022-08-25T12:29:13.098Z,13.47
2022-08-25T12:32:00.571Z,11.39
2022-08-25T12:34:55.287Z,13.52
2022-08-25T12:37:27.877Z,10.45
2022-08-25T12:40:05.133Z,9.15
2022-08-25T12:42:45.594Z,9.93
2022-08-25T12:45:35.723Z,10.54
2022-08-25T12:48:32.260Z,9.43
2022-08-25T12:51:10.590Z,8.86
2022-08-25T12:53:48.913Z,8.50
2022-08-25T12:56:39.578Z,8.75
2022-08-25T12:59:18.873Z,7.67
2022-08-25T13:02:09.662Z,7.43
2022-08-25T13:04:51.776Z,8.05
2022-08-25T13:07:39.984Z,6.68
2022-08-25T13:10:31.121Z,8.62
2022-08-25T13:13:12.095Z,7.57
2022-08-25T13:15:48.774Z,7.64
2022-08-25T13:18:28.932Z,6.76
2022-08-25T13:21:23.694Z,6.36
2022-08-25T13:24:01.336Z,6.43
2022-08-25T13:26:36.109Z,6.08
2022-08-25T13:29:12.823Z,6.43
2022-08-25T13:32:01.480Z,6.56
2022-08-25T13:34:39.377Z,6.79
2022-08-25T13:37:32.576Z,7.55
2022-08-25T13:40:18.134Z,8.87
2022-08-25T13:42:55.981Z,10.62
2022-08-25T13:45:30.066Z,12.78
2022-08-25T13:48:04.139Z,12.88
2022-08-25T13:50:40.454Z,13.23
2022-08-25T13:53:26.288Z,11.49
2022-08-25T13:56:01.307Z,10.74
2022-08-25T13:58:45.011Z,12.23
2022-08-25T14:01:22.396Z,12.32
2022-08-25T14:03:49.818Z,14.66
2022-08-25T14:06:28.305Z,13.72
2022-08-25T14:09:04.013Z,13.01
2022-08-25T14:11:45.350Z,13.09
2022-08-25T14:14:30.768Z,11.25
2022-08-25T14:17:16.378Z,11.11
2022-08-25T14:19:42.950Z,10.83
2022-08-25T14:22:17.023Z,11.20
2022-08-25T14:24:49.015Z,10.01
2022-08-25T14:27:23.118Z,9.82
2022-08-25T14:29:55.379Z,9.58
2022-08-25T14:32:27.678Z,10.39
2022-08-25T14:35:03.764Z,11.24
2022-08-25T14:37:34.762Z,9.61
2022-08-25T14:40:07.632Z,9.58
2022-08-25T14:42:42.119Z,9.60
2022-08-25T14:45:15.457Z,9.69
2022-08-25T14:47:49.856Z,9.75
2022-08-25T14:50:22.724Z,9.86
2022-08-25T14:52:58.263Z,10.20
2022-08-25T14:55:31.526Z,11.04
2022-08-25T14:58:04.690Z,12.25
2022-08-25T15:00:41.585Z,13.19
2022-08-25T15:03:19.692Z,14.34
2022-08-25T15:05:52.626Z,15.45
2022-08-25T15:08:43.691Z,16.20
2022-08-25T15:11:15.871Z,17.42
2022-08-25T15:13:50.185Z,17.95
2022-08-25T15:16:35.389Z,18.53
2022-08-25T15:19:10.613Z,19.13
2022-08-25T15:21:44.765Z,19.65
2022-08-25T15:24:18.083Z,19.98
2022-08-25T15:29:29.884Z,20.64
2022-08-25T15:32:04.081Z,20.78
2022-08-25T15:34:38.619Z,21.17
2022-08-25T15:37:14.939Z,21.36
2022-08-25T15:39:49.328Z,22.03
2022-08-25T15:42:21.809Z,21.92
2022-08-25T15:44:54.305Z,22.28
2022-08-25T15:47:27.763Z,22.54
2022-08-25T15:50:07.657Z,22.74
2022-08-25T15:52:47.610Z,23.16
2022-08-25T15:55:14.694Z,23.43
2022-08-25T15:57:47.631Z,23.50
2022-08-25T16:00:22.141Z,23.82
2022-08-25T16:02:54.277Z,23.90
2022-08-25T16:05:26.545Z,24.48
2022-08-25T16:07:59.429Z,24.65
2022-08-25T16:10:38.420Z,24.79
2022-08-25T16:13:12.358Z,25.21
2022-08-25T16:15:47.782Z,25.06
2022-08-25T16:18:22.720Z,25.19
2022-08-25T16:20:54.961Z,25.75
2022-08-25T16:23:27.415Z,25.57
2022-08-25T16:25:59.875Z,25.69
2022-08-25T16:28:33.093Z,25.70
2022-08-25T16:31:06.028Z,25.79
2022-08-25T16:33:39.900Z,26.11
2022-08-25T16:36:15.489Z,26.33
2022-08-25T16:38:49.075Z,26.55
2022-08-25T16:41:27.252Z,26.98
2022-08-25T16:43:59.753Z,27.25
2022-08-25T16:46:32.077Z,27.70
2022-08-25T16:49:06.471Z,27.72
2022-08-25T16:51:41.239Z,27.84
2022-08-25T16:54:33.428Z,27.94
2022-08-25T16:57:05.939Z,28.08
2022-08-25T16:59:38.252Z,27.98
2022-08-25T17:02:10.912Z,28.10
2022-08-25T17:04:43.393Z,28.22
2022-08-25T17:07:23.592Z,28.74
2022-08-25T17:09:51.164Z,28.65
2022-08-25T17:12:23.395Z,27.05
2022-08-25T17:14:57.606Z,29.02
2022-08-25T17:17:30.990Z,29.26
2022-08-25T17:20:05.097Z,30.08
2022-08-25T17:22:37.210Z,30.24
2022-08-25T17:25:11.097Z,30.25
2022-08-25T17:27:43.469Z,31.20
2022-08-25T17:30:15.828Z,31.78
2022-08-25T17:32:51.116Z,32.00
2022-08-25T17:35:23.009Z,32.11
2022-08-25T17:37:55.657Z,32.46
2022-08-25T17:40:28.011Z,32.63
2022-08-25T17:43:00.797Z,32.76
2022-08-25T17:45:33.570Z,32.88
2022-08-25T17:48:06.639Z,33.22
2022-08-25T17:50:39.782Z,33.48
2022-08-25T17:53:13.665Z,33.06
2022-08-25T17:55:47.976Z,32.86
2022-08-25T17:58:20.338Z,33.02
2022-08-25T18:00:52.745Z,33.30
2022-08-25T18:03:25.634Z,33.66
2022-08-25T18:05:59.222Z,33.79
2022-08-25T18:08:35.126Z,34.05
2022-08-25T18:11:06.736Z,33.94
2022-08-25T18:13:42.611Z,33.37
2022-08-25T18:16:15.574Z,33.59
2022-08-25T18:18:48.099Z,33.85
2022-08-25T18:21:21.331Z,33.89
2022-08-25T18:23:56.016Z,33.93
2022-08-25T18:26:28.519Z,34.38
2022-08-25T18:29:00.831Z,34.29
2022-08-25T18:31:33.462Z,34.91
2022-08-25T18:34:07.385Z,34.72
2022-08-25T18:36:39.738Z,35.06
2022-08-25T18:39:34.452Z,35.25
2022-08-25T18:42:06.432Z,35.26
2022-08-25T18:44:38.963Z,35.68
2022-08-25T18:47:12.238Z,35.67
2022-08-25T18:49:44.661Z,36.12
2022-08-25T18:52:18.062Z,35.88
2022-08-25T18:54:50.750Z,35.88
2022-08-25T18:57:24.694Z,36.24
2022-08-25T18:59:56.700Z,36.24
2022-08-25T19:02:31.713Z,36.33
2022-08-25T19:05:07.761Z,36.46
2022-08-25T19:07:40.237Z,36.56
2022-08-25T19:10:12.288Z,36.65
2022-08-25T19:12:44.839Z,37.20
2022-08-25T19:15:17.292Z,37.19
2022-08-25T19:17:49.612Z,36.89
2022-08-25T19:20:23.309Z,36.46
2022-08-25T19:22:55.596Z,35.77
2022-08-25T19:25:33.223Z,35.15
2022-08-25T19:28:02.533Z,34.58
2022-08-25T19:30:35.773Z,34.69
2022-08-25T19:33:11.688Z,35.05
2022-08-25T19:35:50.300Z,35.17
2022-08-25T19:38:33.455Z,35.79
2022-08-25T19:40:59.767Z,35.62
2022-08-25T19:43:31.863Z,35.32
2022-08-25T19:46:04.068Z,35.11
2022-08-25T19:48:37.322Z,34.84
2022-08-25T19:51:11.768Z,35.23
2022-08-25T19:53:44.570Z,35.77
2022-08-25T19:56:16.696Z,35.89
2022-08-25T19:58:49.400Z,35.48
2022-08-25T20:01:22.470Z,36.23
2022-08-25T20:04:10.577Z,35.02
2022-08-25T20:06:43.109Z,35.30
2022-08-25T20:09:36.071Z,35.14
2022-08-25T20:11:51.796Z,35.16
2022-08-25T20:14:23.990Z,35.74
2022-08-25T20:16:56.250Z,35.65
2022-08-25T20:19:28.589Z,35.78
2022-08-25T20:22:00.761Z,35.92
2022-08-25T20:24:50.984Z,35.77
2022-08-25T20:27:26.691Z,36.02
2022-08-25T20:29:59.727Z,36.63
2022-08-25T20:32:35.695Z,37.25
2022-08-25T20:35:10.331Z,37.01
2022-08-25T20:37:46.056Z,37.24
2022-08-25T20:40:25.513Z,37.31
2022-08-25T20:42:57.872Z,37.76
2022-08-25T20:45:30.116Z,37.81
2022-08-25T20:48:02.203Z,38.20
2022-08-25T20:50:34.685Z,38.19
2022-08-25T20:53:10.166Z,38.12
2022-08-25T20:55:43.656Z,38.13
2022-08-25T20:58:16.879Z,37.91
2022-08-25T21:00:49.033Z,38.21
2022-08-25T21:03:21.257Z,37.83
2022-08-25T21:05:53.588Z,37.75
2022-08-25T21:08:26.210Z,37.95
2022-08-25T21:10:58.269Z,38.45
2022-08-25T21:13:32.249Z,38.99
2022-08-25T21:16:05.706Z,38.99
2022-08-25T21:18:38.797Z,39.44
2022-08-25T21:21:15.236Z,39.76
2022-08-25T21:23:50.971Z,39.84
2022-08-25T21:26:24.143Z,40.15
2022-08-25T21:29:03.826Z,37.83
2022-08-25T21:31:37.083Z,40.63
2022-08-25T21:34:13.465Z,40.63
2022-08-25T21:36:46.173Z,41.08
2022-08-25T21:39:18.927Z,41.22
2022-08-25T21:41:51.045Z,41.28
2022-08-25T21:44:25.646Z,41.58
2022-08-25T21:46:58.367Z,42.03
2022-08-25T21:49:30.734Z,42.08
2022-08-25T21:52:04.753Z,42.20
2022-08-25T21:54:37.727Z,42.41
2022-08-25T21:57:09.736Z,42.35
2022-08-25T21:59:43.524Z,42.55
2022-08-25T22:02:20.538Z,42.40
2022-08-25T22:04:54.950Z,42.33
2022-08-25T22:07:28.116Z,42.61
2022-08-25T22:10:01.834Z,42.73
2022-08-25T22:12:34.000Z,42.92
2022-08-25T22:15:07.163Z,43.32
2022-08-25T22:17:41.213Z,43.45
2022-08-25T22:20:15.456Z,43.51
2022-08-25T22:22:48.215Z,43.78
2022-08-25T22:25:20.426Z,44.03
2022-08-25T22:27:56.442Z,44.10
2022-08-25T22:30:28.367Z,44.25
2022-08-25T22:33:00.816Z,44.58
2022-08-25T22:35:35.238Z,44.67
2022-08-25T22:38:12.398Z,44.76
2022-08-25T22:40:42.088Z,45.12
2022-08-25T22:43:14.165Z,42.45
2022-08-25T22:45:46.555Z,45.43
2022-08-25T22:48:18.647Z,45.68
2022-08-25T22:50:50.678Z,45.82
2022-08-25T22:53:24.369Z,45.88
2022-08-25T22:55:59.150Z,45.85
2022-08-25T22:58:31.142Z,45.84
2022-08-25T23:01:03.890Z,45.39
2022-08-25T23:03:36.392Z,44.73
2022-08-25T23:06:22.121Z,44.92
2022-08-25T23:08:52.589Z,45.26
2022-08-25T23:11:28.883Z,46.00
2022-08-25T23:14:02.526Z,45.94
2022-08-25T23:16:34.958Z,46.11
2022-08-25T23:19:07.487Z,46.21
2022-08-25T23:21:56.975Z,46.63
2022-08-25T23:24:30.982Z,46.80
2022-08-25T23:27:05.092Z,46.94
2022-08-25T23:29:39.969Z,46.94
2022-08-25T23:32:14.472Z,46.85
2022-08-25T23:34:47.379Z,47.02
2022-08-25T23:37:19.580Z,46.88
2022-08-25T23:39:51.758Z,46.94
2022-08-25T23:42:23.915Z,47.16
2022-08-25T23:44:56.127Z,47.12
2022-08-25T23:47:28.551Z,47.33
2022-08-25T23:50:00.800Z,47.50
2022-08-25T23:52:33.536Z,47.70
2022-08-25T23:55:06.527Z,47.66
2022-08-25T23:57:39.639Z,47.35
